Time;durP1;ratioP1;P1;durP2;ratioP2;P2;SDS_P1;SDS_P2;PMS_P1;PMS_P2;Temp;Humidity;BMP_temperature;BMP_pressure;BME280_temperature;BME280_humidity;BME280_pressure;Samples;Min_cycle;Max_cycle;Signal;HPM_P1;HPM_P2
2021/10/22 00:02:12;;;;;;;5.83;1.37;;;;;;;;;;762410;182;923638;-66
2021/10/22 00:04:39;;;;;;;4.13;1.60;;;;;;;;;;771156;182;915966;-66
2021/10/22 00:07:04;;;;;;;2.50;1.10;;;;;;;;;;765973;182;920420;-66
2021/10/22 00:09:30;;;;;;;4.13;1.27;;;;;;;;;;768226;182;920756;-66
2021/10/22 00:11:56;;;;;;;1.97;1.10;;;;;;;;;;767113;182;919880;-66
2021/10/22 00:14:22;;;;;;;4.62;1.40;;;;;;;;;;769509;182;919463;-66
2021/10/22 00:16:47;;;;;;;3.20;1.33;;;;;;;;;;764553;182;920906;-66
2021/10/22 00:19:13;;;;;;;4.60;1.70;;;;;;;;;;763577;182;1015868;-66
2021/10/22 00:21:39;;;;;;;4.00;1.60;;;;;;;;;;774455;182;911930;-66
2021/10/22 00:24:05;;;;;;;5.80;1.50;;;;;;;;;;769315;182;960649;-66
2021/10/22 00:26:31;;;;;;;5.90;1.40;;;;;;;;;;768423;182;914034;-66
2021/10/22 00:28:57;;;;;;;2.50;1.30;;;;;;;;;;773581;182;913794;-66
2021/10/22 00:31:23;;;;;;;3.47;1.37;;;;;;;;;;763770;182;912407;-66
2021/10/22 00:33:49;;;;;;;2.93;1.47;;;;;;;;;;768292;182;919361;-66
2021/10/22 00:36:15;;;;;;;4.50;1.90;;;;;;;;;;769526;180;915562;-66
2021/10/22 00:38:41;;;;;;;4.40;1.60;;;;;;;;;;768005;182;919339;-66
2021/10/22 00:41:06;;;;;;;3.10;1.73;;;;;;;;;;768811;182;919072;-66
2021/10/22 00:43:33;;;;;;;2.87;1.15;;;;;;;;;;767490;182;919942;-66
2021/10/22 00:45:58;;;;;;;4.07;1.20;;;;;;;;;;775344;182;919468;-66
2021/10/22 00:48:24;;;;;;;11.07;1.53;;;;;;;;;;769443;182;916440;-66
2021/10/22 00:50:50;;;;;;;2.80;1.30;;;;;;;;;;764463;182;914965;-66
2021/10/22 00:53:16;;;;;;;3.60;1.50;;;;;;;;;;772455;182;919744;-66
2021/10/22 00:55:41;;;;;;;3.50;1.10;;;;;;;;;;768954;182;915405;-65
2021/10/22 00:58:07;;;;;;;4.17;1.70;;;;;;;;;;767554;182;1019444;-65
2021/10/22 01:00:33;;;;;;;2.87;1.27;;;;;;;;;;774315;181;913604;-66
2021/10/22 01:02:59;;;;;;;9.53;2.17;;;;;;;;;;753948;185;915941;-66
2021/10/22 01:05:25;;;;;;;2.23;1.23;;;;;;;;;;761577;182;920791;-66
2021/10/22 01:07:51;;;;;;;5.83;1.87;;;;;;;;;;768744;182;920114;-66
2021/10/22 01:10:17;;;;;;;3.10;1.30;;;;;;;;;;775550;182;919686;-66
2021/10/22 01:12:42;;;;;;;3.63;1.50;;;;;;;;;;764437;182;928982;-66
2021/10/22 01:15:08;;;;;;;5.12;1.62;;;;;;;;;;770197;182;916050;-66
2021/10/22 01:17:37;;;;;;;2.53;1.20;;;;;;;;;;767160;182;920612;-66
2021/10/22 01:20:04;;;;;;;3.20;1.33;;;;;;;;;;768934;182;915751;-66
2021/10/22 01:22:29;;;;;;;6.43;1.90;;;;;;;;;;769331;181;914950;-66
2021/10/22 01:24:56;;;;;;;4.20;1.70;;;;;;;;;;767630;182;916594;-66
2021/10/22 01:27:22;;;;;;;6.53;1.65;;;;;;;;;;767823;182;909099;-66
2021/10/22 01:29:47;;;;;;;5.63;1.40;;;;;;;;;;768743;182;915747;-66
2021/10/22 01:32:13;;;;;;;10.70;1.70;;;;;;;;;;769264;182;919574;-65
2021/10/22 01:34:39;;;;;;;3.93;1.60;;;;;;;;;;774751;182;919694;-65
2021/10/22 01:37:04;;;;;;;4.53;1.63;;;;;;;;;;770167;182;919774;-66
2021/10/22 01:39:30;;;;;;;3.30;1.77;;;;;;;;;;768629;182;919526;-66
2021/10/22 01:41:56;;;;;;;4.00;1.50;;;;;;;;;;773194;182;919245;-65
2021/10/22 01:44:24;;;;;;;4.80;1.77;;;;;;;;;;767051;182;918942;-66
2021/10/22 01:46:48;;;;;;;2.40;1.20;;;;;;;;;;766019;182;1095948;-64
2021/10/22 01:49:14;;;;;;;5.60;1.50;;;;;;;;;;768324;182;918768;-66
2021/10/22 01:51:40;;;;;;;4.93;1.50;;;;;;;;;;763066;182;918707;-66
2021/10/22 01:54:05;;;;;;;3.20;1.50;;;;;;;;;;766133;182;919006;-65
2021/10/22 01:56:31;;;;;;;3.90;1.73;;;;;;;;;;769367;182;927790;-65
2021/10/22 01:58:57;;;;;;;7.87;1.70;;;;;;;;;;773050;182;918523;-66
2021/10/22 02:01:23;;;;;;;7.10;2.10;;;;;;;;;;769632;182;919550;-66
2021/10/22 02:03:49;;;;;;;3.58;1.40;;;;;;;;;;768551;182;920269;-66
2021/10/22 02:06:15;;;;;;;6.63;1.63;;;;;;;;;;773712;182;919844;-67
2021/10/22 02:08:40;;;;;;;2.97;1.63;;;;;;;;;;769946;182;918612;-66
2021/10/22 02:11:06;;;;;;;10.43;1.70;;;;;;;;;;769200;180;1021532;-65
2021/10/22 02:13:32;;;;;;;4.27;1.30;;;;;;;;;;777696;181;920944;-66
2021/10/22 02:15:58;;;;;;;5.07;1.47;;;;;;;;;;769534;180;919245;-66
2021/10/22 02:18:24;;;;;;;3.53;1.60;;;;;;;;;;768750;182;1065682;-66
2021/10/22 02:20:50;;;;;;;3.60;1.60;;;;;;;;;;771392;182;919639;-65
2021/10/22 02:23:16;;;;;;;4.20;1.50;;;;;;;;;;764615;182;919626;-66
2021/10/22 02:25:41;;;;;;;4.10;1.40;;;;;;;;;;765254;182;1020853;-65
2021/10/22 02:28:07;;;;;;;4.77;1.80;;;;;;;;;;770438;182;919622;-66
2021/10/22 02:30:33;;;;;;;6.70;1.50;;;;;;;;;;775486;182;919197;-65
2021/10/22 02:32:59;;;;;;;5.60;2.30;;;;;;;;;;769077;182;920207;-66
2021/10/22 02:35:25;;;;;;;7.77;2.17;;;;;;;;;;767516;182;918816;-66
2021/10/22 02:37:51;;;;;;;5.23;1.43;;;;;;;;;;775585;182;918689;-65
2021/10/22 02:40:16;;;;;;;5.63;1.83;;;;;;;;;;772306;182;919701;-67
2021/10/22 02:42:42;;;;;;;3.90;1.70;;;;;;;;;;768274;182;920197;-66
2021/10/22 02:45:09;;;;;;;4.30;1.95;;;;;;;;;;771665;182;921446;-65
2021/10/22 02:47:35;;;;;;;4.50;2.23;;;;;;;;;;770943;182;919412;-66
2021/10/22 02:50:01;;;;;;;4.43;1.40;;;;;;;;;;769341;182;919535;-67
2021/10/22 02:52:27;;;;;;;5.73;1.37;;;;;;;;;;762023;182;919229;-66
2021/10/22 02:54:52;;;;;;;3.87;1.60;;;;;;;;;;773762;182;919168;-65
2021/10/22 02:57:18;;;;;;;2.73;1.70;;;;;;;;;;768048;182;961824;-66
2021/10/22 02:59:44;;;;;;;5.35;1.92;;;;;;;;;;768597;182;919244;-66
2021/10/22 03:02:10;;;;;;;3.80;1.90;;;;;;;;;;771569;180;918718;-65
2021/10/22 03:04:36;;;;;;;3.20;1.97;;;;;;;;;;765148;182;919739;-65
2021/10/22 03:07:02;;;;;;;4.50;2.10;;;;;;;;;;767840;182;919725;-66
2021/10/22 03:09:27;;;;;;;5.60;2.50;;;;;;;;;;774981;182;918127;-66
2021/10/22 03:11:53;;;;;;;2.97;1.35;;;;;;;;;;767817;182;919417;-66
2021/10/22 03:14:20;;;;;;;4.23;1.97;;;;;;;;;;769802;182;918830;-66
2021/10/22 03:16:45;;;;;;;5.87;1.57;;;;;;;;;;763438;182;934561;-67
2021/10/22 03:19:11;;;;;;;4.57;1.33;;;;;;;;;;772675;182;918510;-65
2021/10/22 03:21:37;;;;;;;4.13;1.40;;;;;;;;;;760011;182;919299;-66
2021/10/22 03:24:02;;;;;;;2.43;1.30;;;;;;;;;;768013;181;919453;-67
2021/10/22 03:26:28;;;;;;;3.00;1.50;;;;;;;;;;768413;182;919153;-66
2021/10/22 03:28:54;;;;;;;4.07;1.70;;;;;;;;;;764962;182;922578;-67
2021/10/22 03:31:20;;;;;;;3.90;1.60;;;;;;;;;;768135;182;921430;-67
2021/10/22 03:33:46;;;;;;;2.93;1.30;;;;;;;;;;773835;182;1052413;-66
2021/10/22 03:36:12;;;;;;;2.57;1.10;;;;;;;;;;763176;182;919425;-65
2021/10/22 03:38:38;;;;;;;2.60;1.33;;;;;;;;;;768816;182;919633;-65
2021/10/22 03:41:03;;;;;;;2.10;1.10;;;;;;;;;;768309;182;919777;-66
2021/10/22 03:43:29;;;;;;;5.03;1.23;;;;;;;;;;769217;182;919641;-65
2021/10/22 03:45:55;;;;;;;3.40;1.20;;;;;;;;;;766486;182;919519;-66
2021/10/22 03:48:21;;;;;;;2.47;0.90;;;;;;;;;;766033;182;919026;-66
2021/10/22 03:50:47;;;;;;;6.32;1.60;;;;;;;;;;770159;182;918147;-65
2021/10/22 03:53:13;;;;;;;3.10;1.33;;;;;;;;;;765876;182;919355;-66
2021/10/22 03:55:39;;;;;;;2.30;1.15;;;;;;;;;;766034;182;919105;-65
2021/10/22 03:58:04;;;;;;;5.03;1.10;;;;;;;;;;771133;182;919084;-66
2021/10/22 04:00:30;;;;;;;2.30;1.10;;;;;;;;;;767112;182;919285;-67
2021/10/22 04:02:56;;;;;;;2.00;1.00;;;;;;;;;;766576;182;918929;-66
2021/10/22 04:05:22;;;;;;;2.65;1.25;;;;;;;;;;770354;182;920444;-65
2021/10/22 04:07:48;;;;;;;4.10;1.07;;;;;;;;;;765533;184;918977;-66
2021/10/22 04:10:14;;;;;;;2.30;1.17;;;;;;;;;;766456;182;919752;-65
2021/10/22 04:12:40;;;;;;;2.53;0.87;;;;;;;;;;764957;182;919350;-65
2021/10/22 04:15:06;;;;;;;2.17;1.10;;;;;;;;;;771528;182;918343;-66
2021/10/22 04:17:32;;;;;;;5.30;1.10;;;;;;;;;;765705;182;919342;-66
2021/10/22 04:19:58;;;;;;;5.10;1.20;;;;;;;;;;766894;182;918694;-66
2021/10/22 04:22:23;;;;;;;2.00;0.90;;;;;;;;;;773523;182;918746;-68
2021/10/22 04:24:49;;;;;;;2.80;1.00;;;;;;;;;;770438;182;917558;-66
2021/10/22 04:27:15;;;;;;;2.47;1.10;;;;;;;;;;765040;182;918825;-66
2021/10/22 04:29:41;;;;;;;1.90;0.90;;;;;;;;;;774507;182;919007;-66
2021/10/22 04:32:07;;;;;;;2.27;1.10;;;;;;;;;;768385;182;917537;-66
2021/10/22 04:34:34;;;;;;;3.73;0.97;;;;;;;;;;764494;182;922765;-66
2021/10/22 04:37:21;;;;;;;2.43;1.10;;;;;;;;;;771527;182;918428;-65
2021/10/22 04:41:58;;;;;;;2.47;0.83;;;;;;;;;;769676;182;965647;-65
2021/10/22 04:44:26;;;;;;;4.63;1.10;;;;;;;;;;766090;182;928606;-66
2021/10/22 04:46:52;;;;;;;1.87;1.00;;;;;;;;;;768241;182;1586151;-66
2021/10/22 04:49:18;;;;;;;5.43;1.10;;;;;;;;;;776193;182;919387;-66
2021/10/22 04:51:44;;;;;;;3.23;0.87;;;;;;;;;;767579;180;1050744;-66
2021/10/22 04:54:10;;;;;;;10.33;1.20;;;;;;;;;;770210;182;921609;-66
2021/10/22 04:56:35;;;;;;;4.93;1.43;;;;;;;;;;770665;182;917703;-66
2021/10/22 04:59:01;;;;;;;5.13;1.10;;;;;;;;;;771355;182;919583;-66
2021/10/22 05:01:27;;;;;;;2.93;1.17;;;;;;;;;;767668;182;920909;-66
2021/10/22 05:03:53;;;;;;;4.47;1.27;;;;;;;;;;775415;182;978559;-66
2021/10/22 05:06:19;;;;;;;3.87;1.43;;;;;;;;;;765015;182;909871;-66
2021/10/22 05:08:45;;;;;;;4.77;1.10;;;;;;;;;;769736;182;909349;-66
2021/10/22 05:11:11;;;;;;;2.00;1.17;;;;;;;;;;766738;182;918858;-66
2021/10/22 05:13:37;;;;;;;9.70;1.50;;;;;;;;;;771928;181;918895;-66
2021/10/22 05:16:03;;;;;;;7.00;1.45;;;;;;;;;;765714;182;930946;-66
2021/10/22 05:18:29;;;;;;;3.03;1.23;;;;;;;;;;768858;182;1022200;-66
2021/10/22 05:20:54;;;;;;;2.40;1.50;;;;;;;;;;772534;182;919694;-66
2021/10/22 05:23:20;;;;;;;3.03;1.50;;;;;;;;;;768139;182;942376;-66
2021/10/22 05:25:46;;;;;;;4.87;1.93;;;;;;;;;;769125;182;919225;-66
2021/10/22 05:28:12;;;;;;;5.67;1.30;;;;;;;;;;770866;182;919177;-66
2021/10/22 05:30:38;;;;;;;3.12;1.40;;;;;;;;;;769532;182;919085;-66
2021/10/22 05:33:03;;;;;;;2.43;1.30;;;;;;;;;;768741;182;919285;-66
2021/10/22 05:35:29;;;;;;;2.00;0.90;;;;;;;;;;769919;182;919692;-66
2021/10/22 05:37:55;;;;;;;4.83;1.60;;;;;;;;;;765307;182;921999;-67
2021/10/22 05:40:21;;;;;;;2.20;1.00;;;;;;;;;;766385;182;918927;-68
2021/10/22 05:42:47;;;;;;;5.73;1.30;;;;;;;;;;768912;182;916271;-65
2021/10/22 05:45:13;;;;;;;4.57;1.60;;;;;;;;;;771159;182;918478;-66
2021/10/22 05:47:39;;;;;;;4.93;1.10;;;;;;;;;;769552;180;919593;-66
2021/10/22 05:50:05;;;;;;;1.80;0.80;;;;;;;;;;771765;181;919387;-65
2021/10/22 05:52:31;;;;;;;3.37;1.30;;;;;;;;;;775804;182;919306;-66
2021/10/22 05:54:56;;;;;;;2.43;1.23;;;;;;;;;;769714;182;1120097;-65
2021/10/22 05:57:22;;;;;;;2.87;1.30;;;;;;;;;;770135;182;947109;-67
2021/10/22 05:59:48;;;;;;;4.20;1.20;;;;;;;;;;773331;182;967886;-66
2021/10/22 06:02:14;;;;;;;3.17;1.43;;;;;;;;;;766521;182;914009;-66
2021/10/22 06:04:40;;;;;;;5.70;1.27;;;;;;;;;;765333;182;919453;-66
2021/10/22 06:07:06;;;;;;;3.63;1.60;;;;;;;;;;769119;182;919393;-66
2021/10/22 06:09:31;;;;;;;6.33;1.43;;;;;;;;;;765528;182;919214;-65
2021/10/22 06:11:57;;;;;;;2.67;1.20;;;;;;;;;;767266;182;919316;-65
2021/10/22 06:14:23;;;;;;;3.60;1.40;;;;;;;;;;768251;182;919353;-66
2021/10/22 06:16:49;;;;;;;3.50;1.93;;;;;;;;;;772841;182;919266;-66
2021/10/22 06:19:21;;;;;;;2.80;1.77;;;;;;;;;;766099;182;920637;-66
2021/10/22 06:24:15;;;;;;;3.93;1.87;;;;;;;;;;767645;182;1020317;-68
2021/10/22 06:26:42;;;;;;;4.67;1.80;;;;;;;;;;775081;182;918752;-67
2021/10/22 06:29:08;;;;;;;3.80;1.60;;;;;;;;;;768696;182;926157;-67
2021/10/22 06:31:36;;;;;;;4.60;2.00;;;;;;;;;;768042;181;925102;-67
2021/10/22 06:34:00;;;;;;;7.30;2.10;;;;;;;;;;774678;182;919204;-66
2021/10/22 06:36:25;;;;;;;3.40;1.37;;;;;;;;;;770474;182;918487;-67
2021/10/22 06:38:51;;;;;;;5.43;2.77;;;;;;;;;;770849;182;917950;-68
2021/10/22 06:41:17;;;;;;;3.10;1.40;;;;;;;;;;776711;182;624269;-67
2021/10/22 06:43:43;;;;;;;4.80;1.87;;;;;;;;;;766872;182;635323;-69
2021/10/22 06:46:09;;;;;;;5.60;1.60;;;;;;;;;;762328;182;919624;-67
2021/10/22 06:48:34;;;;;;;4.27;1.53;;;;;;;;;;766258;182;918056;-67
2021/10/22 06:51:00;;;;;;;4.45;1.42;;;;;;;;;;773206;182;920194;-67
2021/10/22 06:53:26;;;;;;;3.57;1.30;;;;;;;;;;765284;182;920063;-67
2021/10/22 06:55:52;;;;;;;6.45;2.10;;;;;;;;;;767612;182;924539;-67
2021/10/22 06:58:18;;;;;;;5.43;1.63;;;;;;;;;;767318;182;919569;-67
2021/10/22 07:00:49;;;;;;;4.10;1.37;;;;;;;;;;763101;180;918745;-67
2021/10/22 07:03:15;;;;;;;2.90;1.30;;;;;;;;;;768969;182;919607;-67
2021/10/22 07:05:51;;;;;;;3.43;1.67;;;;;;;;;;773100;182;919591;-67
2021/10/22 07:08:03;;;;;;;5.33;1.40;;;;;;;;;;765555;182;919577;-67
2021/10/22 07:10:29;;;;;;;6.93;1.30;;;;;;;;;;771134;182;919499;-67
2021/10/22 07:12:55;;;;;;;4.87;1.90;;;;;;;;;;769148;182;920558;-66
2021/10/22 07:15:21;;;;;;;3.23;1.67;;;;;;;;;;772199;182;919040;-67
2021/10/22 07:17:46;;;;;;;6.50;1.63;;;;;;;;;;769133;182;919981;-67
2021/10/22 07:20:12;;;;;;;5.63;1.70;;;;;;;;;;768460;182;919164;-67
2021/10/22 07:22:47;;;;;;;6.40;1.63;;;;;;;;;;775286;182;919935;-67
2021/10/22 07:25:05;;;;;;;4.67;3.30;;;;;;;;;;768937;182;919938;-68
2021/10/22 07:27:31;;;;;;;6.93;1.83;;;;;;;;;;766891;182;919573;-68
2021/10/22 07:29:57;;;;;;;3.45;1.73;;;;;;;;;;774058;182;918805;-66
2021/10/22 07:32:23;;;;;;;4.10;1.53;;;;;;;;;;765874;182;919746;-68
2021/10/22 07:34:49;;;;;;;17.30;2.20;;;;;;;;;;768973;182;921013;-66
2021/10/22 07:37:15;;;;;;;21.90;4.33;;;;;;;;;;774239;182;629731;-67
2021/10/22 07:39:41;;;;;;;9.97;2.93;;;;;;;;;;774297;182;616692;-67
2021/10/22 07:42:07;;;;;;;9.73;2.33;;;;;;;;;;771460;181;624628;-67
2021/10/22 07:44:33;;;;;;;9.17;2.50;;;;;;;;;;774286;182;623401;-67
2021/10/22 07:46:58;;;;;;;9.50;2.60;;;;;;;;;;773253;182;642684;-66
2021/10/22 07:49:24;;;;;;;4.20;1.80;;;;;;;;;;770878;182;639708;-67
2021/10/22 07:51:50;;;;;;;6.23;2.03;;;;;;;;;;773693;182;620492;-67
2021/10/22 07:54:16;;;;;;;6.00;2.30;;;;;;;;;;774878;182;616562;-67
2021/10/22 07:56:44;;;;;;;6.57;2.50;;;;;;;;;;770347;182;632016;-67
2021/10/22 07:59:08;;;;;;;5.93;1.83;;;;;;;;;;771453;182;628543;-67
2021/10/22 08:01:33;;;;;;;4.67;2.00;;;;;;;;;;773542;182;619956;-67
2021/10/22 08:03:59;;;;;;;9.20;2.43;;;;;;;;;;775915;183;630367;-67
2021/10/22 08:06:25;;;;;;;15.00;4.00;;;;;;;;;;768124;182;639739;-66
2021/10/22 08:08:53;;;;;;;4.63;2.03;;;;;;;;;;768163;181;637637;-67
2021/10/22 08:11:17;;;;;;;10.87;3.17;;;;;;;;;;778627;181;630935;-68
2021/10/22 08:13:43;;;;;;;8.17;2.57;;;;;;;;;;774453;182;628484;-68
2021/10/22 08:16:09;;;;;;;10.07;1.93;;;;;;;;;;771816;180;624497;-68
2021/10/22 08:18:36;;;;;;;8.17;2.30;;;;;;;;;;777871;182;629735;-69
2021/10/22 08:21:14;;;;;;;9.63;2.03;;;;;;;;;;775400;182;625244;-68
2021/10/22 08:23:28;;;;;;;7.20;2.10;;;;;;;;;;771099;182;643473;-69
2021/10/22 08:25:53;;;;;;;6.90;2.13;;;;;;;;;;768223;182;628021;-67
2021/10/22 08:28:19;;;;;;;5.33;1.90;;;;;;;;;;766917;183;617817;-68
2021/10/22 08:30:46;;;;;;;4.90;1.93;;;;;;;;;;770499;182;637823;-68
2021/10/22 08:33:11;;;;;;;6.10;1.70;;;;;;;;;;770825;182;626864;-69
2021/10/22 08:35:37;;;;;;;3.53;1.50;;;;;;;;;;773015;182;623915;-68
2021/10/22 08:38:05;;;;;;;8.77;2.07;;;;;;;;;;769951;182;627280;-69
2021/10/22 08:40:28;;;;;;;4.03;1.60;;;;;;;;;;772706;182;635176;-70
2021/10/22 08:42:55;;;;;;;6.80;1.77;;;;;;;;;;773154;182;624159;-67
2021/10/22 08:45:20;;;;;;;5.70;2.27;;;;;;;;;;772267;182;628033;-69
2021/10/22 08:47:46;;;;;;;8.40;1.97;;;;;;;;;;769109;182;618986;-67
2021/10/22 08:50:12;;;;;;;6.07;1.73;;;;;;;;;;770730;182;628813;-67
2021/10/22 08:52:38;;;;;;;6.57;1.93;;;;;;;;;;762345;182;917276;-67
2021/10/22 08:55:05;;;;;;;5.83;1.90;;;;;;;;;;769867;182;916817;-70
2021/10/22 08:57:31;;;;;;;3.97;1.87;;;;;;;;;;769908;182;624164;-67
2021/10/22 08:59:58;;;;;;;6.00;2.20;;;;;;;;;;776151;182;614524;-68
2021/10/22 09:02:25;;;;;;;4.13;2.00;;;;;;;;;;770876;182;620222;-68
2021/10/22 09:04:49;;;;;;;6.87;2.20;;;;;;;;;;768810;182;633118;-68
2021/10/22 09:07:15;;;;;;;7.80;1.80;;;;;;;;;;773656;182;640153;-68
2021/10/22 09:09:40;;;;;;;10.10;2.23;;;;;;;;;;771980;182;628357;-70
2021/10/22 09:12:06;;;;;;;7.30;2.03;;;;;;;;;;773326;182;628181;-68
2021/10/22 09:14:33;;;;;;;2.87;1.30;;;;;;;;;;772204;182;634167;-68
2021/10/22 09:16:58;;;;;;;12.57;1.70;;;;;;;;;;770712;183;613363;-68
2021/10/22 09:19:29;;;;;;;5.00;1.90;;;;;;;;;;771392;182;623287;-68
2021/10/22 09:21:57;;;;;;;8.40;1.70;;;;;;;;;;773951;181;629308;-67
2021/10/22 09:24:20;;;;;;;6.60;1.90;;;;;;;;;;778204;181;628511;-68
2021/10/22 09:26:49;;;;;;;4.97;2.20;;;;;;;;;;775430;181;631844;-68
2021/10/22 09:29:17;;;;;;;4.87;1.87;;;;;;;;;;771888;182;919452;-68
2021/10/22 09:31:43;;;;;;;4.87;1.90;;;;;;;;;;772791;182;629011;-68
2021/10/22 09:34:09;;;;;;;2.97;1.50;;;;;;;;;;775732;182;623596;-67
2021/10/22 09:36:36;;;;;;;5.80;1.60;;;;;;;;;;773892;182;693552;-68
2021/10/22 09:39:03;;;;;;;5.50;2.30;;;;;;;;;;770469;182;635368;-69
2021/10/22 09:41:29;;;;;;;5.00;2.47;;;;;;;;;;775248;182;625310;-69
2021/10/22 09:43:54;;;;;;;4.83;2.10;;;;;;;;;;773457;182;615985;-68
2021/10/22 09:46:21;;;;;;;5.25;1.90;;;;;;;;;;770986;182;936030;-68
2021/10/22 09:48:47;;;;;;;6.67;1.90;;;;;;;;;;777221;182;620550;-67
2021/10/22 09:51:20;;;;;;;8.30;2.40;;;;;;;;;;774797;182;625856;-68
2021/10/22 09:53:46;;;;;;;11.53;2.53;;;;;;;;;;773771;182;630152;-69
2021/10/22 09:56:11;;;;;;;3.87;1.80;;;;;;;;;;771416;182;629761;-69
2021/10/22 09:58:37;;;;;;;4.10;1.57;;;;;;;;;;774361;182;630231;-69
2021/10/22 10:01:07;;;;;;;2.20;1.30;;;;;;;;;;770556;182;633754;-71
2021/10/22 10:03:33;;;;;;;2.20;1.10;;;;;;;;;;773762;182;627602;-69
2021/10/22 10:05:58;;;;;;;3.03;1.70;;;;;;;;;;774046;182;623415;-70
2021/10/22 10:08:24;;;;;;;2.27;1.27;;;;;;;;;;769927;182;630031;-68
2021/10/22 10:10:50;;;;;;;5.27;1.47;;;;;;;;;;766648;182;621921;-71
2021/10/22 10:13:16;;;;;;;6.13;2.07;;;;;;;;;;768557;182;741034;-68
2021/10/22 10:15:42;;;;;;;2.93;1.50;;;;;;;;;;776627;182;614143;-69
2021/10/22 10:18:13;;;;;;;3.50;1.57;;;;;;;;;;773120;182;627475;-68
2021/10/22 10:20:33;;;;;;;3.30;1.30;;;;;;;;;;771213;180;625913;-68
2021/10/22 10:22:59;;;;;;;8.33;1.60;;;;;;;;;;775704;182;619696;-69
2021/10/22 10:25:26;;;;;;;4.30;1.47;;;;;;;;;;773157;182;627113;-69
2021/10/22 10:27:52;;;;;;;4.90;1.70;;;;;;;;;;772613;182;913140;-69
2021/10/22 10:30:24;;;;;;;6.70;2.00;;;;;;;;;;769737;182;636679;-67
2021/10/22 10:32:49;;;;;;;5.53;1.70;;;;;;;;;;776614;180;920181;-67
2021/10/22 10:35:15;;;;;;;4.20;1.60;;;;;;;;;;772970;181;877072;-68
2021/10/22 10:37:41;;;;;;;5.47;1.90;;;;;;;;;;771822;182;640048;-69
2021/10/22 10:40:25;;;;;;;5.70;2.30;;;;;;;;;;777283;182;624480;-67
2021/10/22 10:42:52;;;;;;;5.53;1.93;;;;;;;;;;777815;182;620788;-69
2021/10/22 10:45:37;;;;;;;6.00;2.63;;;;;;;;;;770365;182;628629;-68
2021/10/22 10:48:02;;;;;;;5.60;1.80;;;;;;;;;;773818;182;614867;-68
2021/10/22 10:50:34;;;;;;;4.93;1.70;;;;;;;;;;773200;182;620057;-68
2021/10/22 10:52:59;;;;;;;4.03;1.67;;;;;;;;;;772729;182;631721;-68
2021/10/22 10:55:29;;;;;;;5.07;1.93;;;;;;;;;;778367;182;616822;-69
2021/10/22 10:57:54;;;;;;;9.43;4.00;;;;;;;;;;773427;182;633087;-67
2021/10/22 11:00:21;;;;;;;7.13;1.83;;;;;;;;;;772545;182;623455;-68
2021/10/22 11:02:52;;;;;;;4.20;1.63;;;;;;;;;;770460;182;816803;-67
2021/10/22 11:05:18;;;;;;;2.33;1.50;;;;;;;;;;777091;182;624594;-69
2021/10/22 11:07:44;;;;;;;2.67;1.30;;;;;;;;;;772774;182;626709;-70
2021/10/22 11:10:10;;;;;;;6.00;1.50;;;;;;;;;;773851;182;629346;-70
2021/10/22 11:12:50;;;;;;;6.23;1.37;;;;;;;;;;771640;182;918940;-70
2021/10/22 11:15:32;;;;;;;8.50;1.83;;;;;;;;;;771767;182;815907;-69
2021/10/22 11:17:58;;;;;;;4.70;1.43;;;;;;;;;;772547;182;634161;-69
2021/10/22 11:20:24;;;;;;;6.07;1.83;;;;;;;;;;768791;182;656579;-67
2021/10/22 11:22:50;;;;;;;7.83;1.40;;;;;;;;;;769039;182;623684;-69
2021/10/22 11:25:17;;;;;;;2.77;1.30;;;;;;;;;;769961;182;683511;-69
2021/10/22 11:27:42;;;;;;;8.10;1.63;;;;;;;;;;771062;182;627810;-68
2021/10/22 11:30:08;;;;;;;6.47;1.40;;;;;;;;;;768326;182;919574;-66
2021/10/22 11:32:33;;;;;;;2.93;1.13;;;;;;;;;;772318;182;637317;-68
2021/10/22 11:35:00;;;;;;;4.27;1.43;;;;;;;;;;775825;182;630724;-66
2021/10/22 11:37:27;;;;;;;5.80;1.60;;;;;;;;;;771340;182;636915;-68
2021/10/22 11:39:53;;;;;;;6.83;1.67;;;;;;;;;;772051;182;622694;-70
2021/10/22 11:42:19;;;;;;;6.07;1.47;;;;;;;;;;774339;182;637523;-70
2021/10/22 11:44:45;;;;;;;6.47;1.37;;;;;;;;;;772666;181;627967;-70
2021/10/22 11:47:12;;;;;;;4.77;1.40;;;;;;;;;;771511;181;918465;-68
2021/10/22 11:49:37;;;;;;;6.00;1.50;;;;;;;;;;773462;181;622633;-68
2021/10/22 11:52:04;;;;;;;5.30;1.87;;;;;;;;;;777136;182;624929;-68
2021/10/22 11:54:30;;;;;;;3.03;1.57;;;;;;;;;;771872;182;634185;-69
2021/10/22 11:56:55;;;;;;;4.63;1.60;;;;;;;;;;772084;182;642419;-70
2021/10/22 11:59:22;;;;;;;5.60;1.30;;;;;;;;;;774695;182;918262;-69
2021/10/22 12:01:47;;;;;;;4.00;1.30;;;;;;;;;;771939;182;918645;-68
2021/10/22 12:04:19;;;;;;;4.70;1.60;;;;;;;;;;771952;182;636719;-71
2021/10/22 12:06:45;;;;;;;2.53;1.47;;;;;;;;;;771535;182;636777;-71
2021/10/22 12:09:10;;;;;;;3.00;1.43;;;;;;;;;;775657;182;620927;-69
2021/10/22 12:11:36;;;;;;;4.47;2.53;;;;;;;;;;771803;182;615024;-69
2021/10/22 12:14:02;;;;;;;5.40;2.57;;;;;;;;;;773245;182;614661;-71
2021/10/22 12:16:31;;;;;;;7.07;2.10;;;;;;;;;;774338;182;622380;-70
2021/10/22 12:18:58;;;;;;;4.00;1.80;;;;;;;;;;773387;182;827003;-68
2021/10/22 12:21:23;;;;;;;4.20;1.50;;;;;;;;;;771124;182;632483;-68
2021/10/22 12:23:55;;;;;;;6.25;1.85;;;;;;;;;;773660;182;623630;-69
2021/10/22 12:26:21;;;;;;;4.30;1.80;;;;;;;;;;768182;179;629931;-68
2021/10/22 12:28:53;;;;;;;5.13;2.10;;;;;;;;;;770947;182;919314;-68
2021/10/22 12:31:19;;;;;;;2.97;1.30;;;;;;;;;;772737;182;628744;-69
2021/10/22 12:33:45;;;;;;;4.70;1.67;;;;;;;;;;771610;182;622356;-68
2021/10/22 12:36:16;;;;;;;4.43;2.30;;;;;;;;;;772435;182;618182;-70
2021/10/22 12:38:41;;;;;;;4.40;1.60;;;;;;;;;;773480;182;631289;-71
2021/10/22 12:41:07;;;;;;;3.70;1.83;;;;;;;;;;770387;182;915971;-69
2021/10/22 12:43:36;;;;;;;7.33;1.80;;;;;;;;;;771331;182;919220;-68
2021/10/22 12:46:04;;;;;;;3.20;1.27;;;;;;;;;;771048;182;619023;-70
2021/10/22 12:48:30;;;;;;;7.53;1.67;;;;;;;;;;769807;182;631824;-69
2021/10/22 12:51:01;;;;;;;5.80;2.00;;;;;;;;;;773587;182;630507;-69
2021/10/22 12:53:28;;;;;;;8.53;2.20;;;;;;;;;;777424;182;627393;-69
2021/10/22 12:55:58;;;;;;;2.33;1.23;;;;;;;;;;769643;181;908487;-70
2021/10/22 12:58:24;;;;;;;4.57;1.70;;;;;;;;;;772663;181;640406;-69
2021/10/22 13:00:56;;;;;;;4.60;1.10;;;;;;;;;;774320;182;619225;-68
2021/10/22 13:03:22;;;;;;;2.80;1.67;;;;;;;;;;778447;182;621685;-69
2021/10/22 13:05:47;;;;;;;3.40;1.20;;;;;;;;;;772872;182;918652;-70
2021/10/22 13:08:54;;;;;;;4.67;1.30;;;;;;;;;;772882;182;625539;-68
2021/10/22 13:11:07;;;;;;;5.80;1.57;;;;;;;;;;770378;182;627369;-68
2021/10/22 13:13:51;;;;;;;5.20;1.40;;;;;;;;;;771941;182;626674;-70
2021/10/22 13:21:16;;;;;;;5.67;1.50;;;;;;;;;;775946;182;625192;-68
2021/10/22 13:23:42;;;;;;;3.53;1.43;;;;;;;;;;771391;182;634308;-68
2021/10/22 13:26:08;;;;;;;3.77;1.97;;;;;;;;;;770916;182;630072;-72
2021/10/22 13:28:34;;;;;;;4.73;1.40;;;;;;;;;;775604;182;617452;-70
2021/10/22 13:31:05;;;;;;;4.17;1.40;;;;;;;;;;771473;182;699680;-69
2021/10/22 13:33:28;;;;;;;3.10;1.27;;;;;;;;;;769165;182;722736;-68
2021/10/22 13:35:54;;;;;;;5.17;1.30;;;;;;;;;;774600;182;634526;-69
2021/10/22 13:38:20;;;;;;;4.03;1.20;;;;;;;;;;772732;182;651572;-68
2021/10/22 13:40:46;;;;;;;5.40;1.37;;;;;;;;;;772110;182;630547;-71
2021/10/22 13:43:11;;;;;;;2.80;1.57;;;;;;;;;;772924;182;628767;-67
2021/10/22 13:45:37;;;;;;;1.70;0.80;;;;;;;;;;774182;182;626251;-68
2021/10/22 13:48:04;;;;;;;6.33;1.40;;;;;;;;;;767892;182;649192;-66
2021/10/22 13:50:30;;;;;;;5.40;1.53;;;;;;;;;;770968;182;655360;-69
2021/10/22 13:52:56;;;;;;;11.17;1.60;;;;;;;;;;773851;182;632094;-72
2021/10/22 13:55:21;;;;;;;3.57;1.10;;;;;;;;;;772570;182;675539;-68
2021/10/22 13:57:50;;;;;;;3.20;1.57;;;;;;;;;;769073;182;625401;-68
2021/10/22 14:00:13;;;;;;;3.60;1.77;;;;;;;;;;775977;182;629794;-68
2021/10/22 14:02:39;;;;;;;4.90;1.43;;;;;;;;;;771166;182;623706;-67
2021/10/22 14:05:05;;;;;;;5.53;1.37;;;;;;;;;;772692;182;630671;-68
2021/10/22 14:07:31;;;;;;;2.90;1.40;;;;;;;;;;774703;180;648016;-70
2021/10/22 14:09:57;;;;;;;3.17;1.40;;;;;;;;;;776095;181;629775;-69
2021/10/22 14:12:31;;;;;;;4.60;1.73;;;;;;;;;;772673;182;626016;-70
2021/10/22 14:15:07;;;;;;;4.13;1.33;;;;;;;;;;774201;180;645409;-69
2021/10/22 14:17:37;;;;;;;5.93;1.20;;;;;;;;;;773686;182;627706;-69
2021/10/22 14:28:53;;;;;;;4.70;1.30;;;;;;;;;;773797;182;618814;-69
2021/10/22 14:30:07;;;;;;;5.60;1.60;;;;;;;;;;772567;182;628804;-68
2021/10/22 14:32:33;;;;;;;2.10;1.40;;;;;;;;;;777403;182;620499;-70
2021/10/22 14:34:59;;;;;;;3.23;1.50;;;;;;;;;;771102;182;637884;-70
2021/10/22 14:37:26;;;;;;;5.43;1.27;;;;;;;;;;772089;182;634156;-68
2021/10/22 14:39:51;;;;;;;2.90;1.50;;;;;;;;;;773170;182;658358;-69
2021/10/22 14:42:18;;;;;;;4.87;1.90;;;;;;;;;;769315;182;631041;-70